createdAt,value
2017-11-09T00:02:17.940Z,34.07
2017-11-09T00:07:53.345Z,34.43
2017-11-09T00:10:21.694Z,35.17
2017-11-09T00:12:50.048Z,33.20
2017-11-09T00:15:18.403Z,32.70
2017-11-09T00:17:46.752Z,32.77
2017-11-09T00:20:15.125Z,32.60
2017-11-09T00:22:43.483Z,31.60
2017-11-09T00:25:11.865Z,30.30
2017-11-09T00:27:40.209Z,32.10
2017-11-09T00:30:08.554Z,34.37
2017-11-09T00:32:36.900Z,34.93
2017-11-09T00:35:05.252Z,32.17
2017-11-09T00:37:33.630Z,33.43
2017-11-09T00:40:01.993Z,33.27
2017-11-09T00:42:30.376Z,33.53
2017-11-09T00:44:58.752Z,35.80
2017-11-09T00:47:27.132Z,35.00
2017-11-09T00:49:55.494Z,34.57
2017-11-09T00:52:23.868Z,34.93
2017-11-09T00:54:52.225Z,34.40
2017-11-09T00:57:20.595Z,34.33
2017-11-09T00:59:48.960Z,34.40
2017-11-09T01:02:17.320Z,36.10
2017-11-09T01:04:45.784Z,36.40
2017-11-09T01:07:14.140Z,34.93
2017-11-09T01:09:42.522Z,39.07
2017-11-09T01:12:10.876Z,38.17
2017-11-09T01:14:39.284Z,38.23
2017-11-09T01:17:07.734Z,39.63
2017-11-09T01:19:36.114Z,31.57
2017-11-09T01:22:04.497Z,29.47
2017-11-09T01:24:32.868Z,31.70
2017-11-09T01:27:01.236Z,30.80
2017-11-09T01:29:29.617Z,33.00
2017-11-09T01:31:57.968Z,31.90
2017-11-09T01:34:26.343Z,30.80
2017-11-09T01:36:54.699Z,32.23
2017-11-09T01:39:23.067Z,32.93
2017-11-09T01:41:51.469Z,33.77
2017-11-09T01:44:19.820Z,33.00
2017-11-09T01:46:48.204Z,33.33
2017-11-09T01:49:16.610Z,32.93
2017-11-09T01:51:44.967Z,34.77
2017-11-09T01:54:13.352Z,34.07
2017-11-09T01:56:41.697Z,34.50
2017-11-09T01:59:10.192Z,34.60
2017-11-09T02:01:38.536Z,32.60
2017-11-09T02:04:06.906Z,31.63
2017-11-09T02:06:35.253Z,32.50
2017-11-09T02:09:03.599Z,30.07
2017-11-09T02:11:31.986Z,30.63
2017-11-09T02:14:00.336Z,29.70
2017-11-09T02:16:28.716Z,31.63
2017-11-09T02:18:57.059Z,29.43
2017-11-09T02:21:25.416Z,31.33
2017-11-09T02:23:53.779Z,30.60
2017-11-09T02:26:22.220Z,29.90
2017-11-09T02:28:50.566Z,31.20
2017-11-09T02:31:18.914Z,32.60
2017-11-09T02:33:47.277Z,33.93
2017-11-09T02:36:15.631Z,34.70
2017-11-09T02:38:44.022Z,31.63
2017-11-09T02:41:12.401Z,31.60
2017-11-09T02:43:40.755Z,30.83
2017-11-09T02:46:09.104Z,31.83
2017-11-09T02:48:37.460Z,30.53
2017-11-09T02:51:05.804Z,30.67
2017-11-09T02:53:34.182Z,29.67
2017-11-09T02:56:02.557Z,30.03
2017-11-09T02:58:30.936Z,30.60
2017-11-09T03:00:59.307Z,32.50
2017-11-09T03:03:27.653Z,31.67
2017-11-09T03:05:56.015Z,31.47
2017-11-09T03:08:24.373Z,31.83
2017-11-09T03:10:52.752Z,30.60
2017-11-09T03:13:21.099Z,30.77
2017-11-09T03:15:49.500Z,32.87
2017-11-09T03:18:17.881Z,31.17
2017-11-09T03:20:46.260Z,32.23
2017-11-09T03:23:14.617Z,33.53
2017-11-09T03:25:42.975Z,33.07
2017-11-09T03:28:11.320Z,32.93
2017-11-09T03:30:39.722Z,34.77
2017-11-09T03:33:08.077Z,33.80
2017-11-09T03:35:36.429Z,32.67
2017-11-09T03:38:04.779Z,38.90
2017-11-09T03:40:33.133Z,36.33
2017-11-09T03:43:01.615Z,37.90
2017-11-09T03:45:29.981Z,37.67
2017-11-09T03:47:58.353Z,36.57
2017-11-09T03:50:26.711Z,34.87
2017-11-09T03:52:55.095Z,32.70
2017-11-09T03:55:23.452Z,35.73
2017-11-09T03:57:51.814Z,33.87
2017-11-09T04:00:20.169Z,34.83
2017-11-09T04:02:48.560Z,35.77
2017-11-09T04:05:16.908Z,32.50
2017-11-09T04:07:45.283Z,33.17
2017-11-09T04:10:13.642Z,33.70
2017-11-09T04:12:42.019Z,33.90
2017-11-09T04:15:10.380Z,34.20
2017-11-09T04:17:38.757Z,34.73
2017-11-09T04:20:07.148Z,35.60
2017-11-09T04:22:35.528Z,35.90
2017-11-09T04:25:03.892Z,38.83
2017-11-09T04:27:32.386Z,36.93
2017-11-09T04:30:00.740Z,38.20
2017-11-09T04:32:29.087Z,36.80
2017-11-09T04:34:57.448Z,38.70
2017-11-09T04:37:25.827Z,37.00
2017-11-09T04:39:54.884Z,39.47
2017-11-09T04:42:23.273Z,39.43
2017-11-09T04:44:51.623Z,37.50
2017-11-09T04:47:20.013Z,37.20
2017-11-09T04:49:48.371Z,36.83
2017-11-09T04:52:16.763Z,34.70
2017-11-09T04:54:45.115Z,38.23
2017-11-09T04:57:13.507Z,36.57
2017-11-09T04:59:41.871Z,39.40
2017-11-09T05:02:10.224Z,43.10
2017-11-09T05:04:38.574Z,39.33
2017-11-09T05:07:06.969Z,38.63
2017-11-09T05:09:35.319Z,38.07
2017-11-09T05:12:03.716Z,39.83
2017-11-09T05:14:32.091Z,39.00
2017-11-09T05:17:00.460Z,39.73
2017-11-09T05:19:28.839Z,39.33
2017-11-09T05:21:57.201Z,36.77
2017-11-09T05:24:25.562Z,36.87
2017-11-09T05:26:53.916Z,34.90
2017-11-09T05:29:22.298Z,37.87
2017-11-09T05:31:50.689Z,39.30
2017-11-09T05:34:19.052Z,36.67
2017-11-09T05:36:47.401Z,36.23
2017-11-09T05:39:15.755Z,40.30
2017-11-09T05:41:44.141Z,39.67
2017-11-09T05:44:12.508Z,36.87
2017-11-09T05:46:40.907Z,36.77
2017-11-09T05:49:09.288Z,36.30
2017-11-09T05:51:37.660Z,42.70
2017-11-09T05:54:06.085Z,46.73
2017-11-09T05:56:34.449Z,43.20
2017-11-09T05:59:02.833Z,41.67
2017-11-09T06:01:31.195Z,47.00
2017-11-09T06:04:00.312Z,40.23
2017-11-09T06:06:28.682Z,38.00
2017-11-09T06:08:57.040Z,33.93
2017-11-09T06:11:25.431Z,33.20
2017-11-09T06:13:53.797Z,35.30
2017-11-09T06:16:22.151Z,35.13
2017-11-09T06:18:50.507Z,36.13
2017-11-09T06:21:18.872Z,34.67
2017-11-09T06:23:47.263Z,33.63
2017-11-09T06:26:15.619Z,37.37
2017-11-09T06:28:44.017Z,35.00
2017-11-09T06:31:12.369Z,36.50
2017-11-09T06:33:40.735Z,34.80
2017-11-09T06:36:09.096Z,41.00
2017-11-09T06:38:37.486Z,35.50
2017-11-09T06:41:07.472Z,36.23
2017-11-09T06:43:35.829Z,33.87
2017-11-09T06:46:04.229Z,33.57
2017-11-09T06:48:32.593Z,38.87
2017-11-09T06:51:00.997Z,39.83
2017-11-09T06:53:29.351Z,35.40
2017-11-09T06:55:57.737Z,39.67
2017-11-09T06:58:26.104Z,35.60
2017-11-09T07:00:54.460Z,33.20
2017-11-09T07:03:22.820Z,41.10
2017-11-09T07:05:51.189Z,41.77
2017-11-09T07:08:19.575Z,36.83
2017-11-09T07:10:47.924Z,34.20
2017-11-09T07:13:16.289Z,34.33
2017-11-09T07:15:44.682Z,34.03
2017-11-09T07:18:13.036Z,34.00
2017-11-09T07:20:41.424Z,31.20
2017-11-09T07:23:09.780Z,32.30
2017-11-09T07:25:38.132Z,30.87
2017-11-09T07:28:06.528Z,33.47
2017-11-09T07:30:34.885Z,31.20
2017-11-09T07:33:03.245Z,32.80
2017-11-09T07:35:31.590Z,31.40
2017-11-09T07:37:59.956Z,36.10
2017-11-09T07:40:28.335Z,32.03
2017-11-09T07:42:56.680Z,30.90
2017-11-09T07:45:25.155Z,28.10
2017-11-09T07:47:53.509Z,32.17
2017-11-09T07:50:21.852Z,28.60
2017-11-09T07:52:50.206Z,26.77
2017-11-09T07:55:18.584Z,27.80
2017-11-09T07:57:46.959Z,28.27
2017-11-09T08:00:15.320Z,28.47
2017-11-09T08:02:43.672Z,30.73
2017-11-09T08:05:12.050Z,30.27
2017-11-09T08:07:40.402Z,28.73
2017-11-09T08:10:08.780Z,25.77
2017-11-09T08:12:37.132Z,29.20
2017-11-09T08:15:05.506Z,30.07
2017-11-09T08:17:33.889Z,30.07
2017-11-09T08:20:02.289Z,31.73
2017-11-09T08:22:30.698Z,29.60
2017-11-09T08:25:02.260Z,31.20
2017-11-09T08:27:31.332Z,32.17
2017-11-09T08:30:01.264Z,28.90
2017-11-09T08:32:32.436Z,32.33
2017-11-09T08:35:01.031Z,29.27
2017-11-09T08:37:29.387Z,32.10
2017-11-09T08:39:57.741Z,27.97
2017-11-09T08:42:26.102Z,29.27
2017-11-09T08:44:54.438Z,32.17
2017-11-09T08:47:22.805Z,33.20
2017-11-09T08:49:51.156Z,31.30
2017-11-09T08:52:19.532Z,28.87
2017-11-09T08:54:47.873Z,30.23
2017-11-09T08:57:16.240Z,33.30
2017-11-09T08:59:44.586Z,31.23
2017-11-09T09:02:12.936Z,30.77
2017-11-09T09:04:41.289Z,29.77
2017-11-09T09:07:09.635Z,31.50
2017-11-09T09:09:38.163Z,33.67
2017-11-09T09:12:06.512Z,32.87
2017-11-09T09:14:34.876Z,32.37
2017-11-09T09:17:03.257Z,30.30
2017-11-09T09:19:31.645Z,31.23
2017-11-09T09:22:00.341Z,30.83
2017-11-09T09:24:28.720Z,31.47
2017-11-09T09:30:12.003Z,29.13
2017-11-09T09:36:01.555Z,31.77
2017-11-09T09:38:35.718Z,34.77
2017-11-09T09:41:05.915Z,33.87
2017-11-09T09:43:34.257Z,38.40
2017-11-09T09:46:02.645Z,37.23
2017-11-09T09:48:30.996Z,35.83
2017-11-09T09:50:59.410Z,33.50
2017-11-09T09:53:27.765Z,36.80
2017-11-09T09:55:56.124Z,39.00
2017-11-09T09:58:24.481Z,38.53
2017-11-09T10:00:52.868Z,37.10
2017-11-09T10:03:21.220Z,39.20
2017-11-09T10:05:49.574Z,36.47
2017-11-09T10:08:17.932Z,38.17
2017-11-09T10:10:46.279Z,35.67
2017-11-09T10:13:14.774Z,37.77
2017-11-09T10:15:43.119Z,36.57
2017-11-09T10:18:11.709Z,36.93
2017-11-09T10:20:40.060Z,39.00
2017-11-09T10:23:08.430Z,37.60
2017-11-09T10:25:36.813Z,38.07
2017-11-09T10:28:05.160Z,34.93
2017-11-09T10:30:34.704Z,37.30
2017-11-09T10:33:03.113Z,36.87
2017-11-09T10:35:31.459Z,35.20
2017-11-09T10:37:59.799Z,36.83
2017-11-09T10:40:28.140Z,32.20
2017-11-09T10:42:56.488Z,34.23
2017-11-09T10:45:24.834Z,31.17
2017-11-09T10:47:53.204Z,32.97
2017-11-09T10:50:21.567Z,29.90
2017-11-09T10:52:49.939Z,32.27
2017-11-09T10:55:18.289Z,32.70
2017-11-09T10:57:46.631Z,33.90
2017-11-09T11:00:14.989Z,34.30
2017-11-09T11:02:43.360Z,34.60
2017-11-09T11:05:11.757Z,32.20
2017-11-09T11:07:40.160Z,32.00
2017-11-09T11:10:08.504Z,32.87
2017-11-09T11:12:37.189Z,31.70
2017-11-09T11:15:05.540Z,30.83
2017-11-09T11:17:33.878Z,30.40
2017-11-09T11:20:02.268Z,29.40
2017-11-09T11:22:30.608Z,28.17
2017-11-09T11:24:58.962Z,31.07
2017-11-09T11:27:27.305Z,29.80
2017-11-09T11:29:55.671Z,29.10
2017-11-09T11:32:24.262Z,31.40
2017-11-09T11:34:52.616Z,33.17
2017-11-09T11:37:21.030Z,33.27
2017-11-09T11:39:49.397Z,33.00
2017-11-09T11:42:17.787Z,29.30
2017-11-09T11:44:46.143Z,29.33
2017-11-09T11:47:14.484Z,34.40
2017-11-09T11:49:42.846Z,33.60
2017-11-09T11:52:11.413Z,34.37
2017-11-09T11:54:39.783Z,33.53
2017-11-09T11:57:12.388Z,32.67
2017-11-09T11:59:41.104Z,34.87
2017-11-09T12:02:09.445Z,35.10
2017-11-09T12:04:37.809Z,33.03
2017-11-09T12:07:07.116Z,32.47
2017-11-09T12:09:35.470Z,30.40
2017-11-09T12:12:03.829Z,30.53
2017-11-09T12:14:32.165Z,29.70
2017-11-09T12:17:00.549Z,32.13
2017-11-09T12:19:28.896Z,29.60
2017-11-09T12:21:57.239Z,29.90
2017-11-09T12:24:25.636Z,27.07
2017-11-09T12:26:53.978Z,26.60
2017-11-09T12:29:22.341Z,25.83
2017-11-09T12:31:50.680Z,26.43
2017-11-09T12:34:19.059Z,26.13
2017-11-09T12:36:47.409Z,25.67
2017-11-09T12:39:15.780Z,27.10
2017-11-09T12:41:44.120Z,27.87
2017-11-09T12:44:12.473Z,28.20
2017-11-09T12:46:40.825Z,28.90
2017-11-09T12:49:09.178Z,28.57
2017-11-09T12:51:37.575Z,31.73
2017-11-09T12:54:05.924Z,29.00
2017-11-09T12:56:34.282Z,31.37
2017-11-09T12:59:02.623Z,27.90
2017-11-09T13:01:30.974Z,26.30
2017-11-09T13:03:59.315Z,26.63
2017-11-09T13:06:27.668Z,25.67
2017-11-09T13:08:56.040Z,27.70
2017-11-09T13:11:25.319Z,26.10
2017-11-09T13:13:53.695Z,27.33
2017-11-09T13:16:22.041Z,26.77
2017-11-09T13:18:50.391Z,25.73
2017-11-09T13:21:19.672Z,29.47
2017-11-09T13:23:48.049Z,29.13
2017-11-09T13:26:16.384Z,26.27
2017-11-09T13:28:44.723Z,28.90
2017-11-09T13:31:13.075Z,27.40
2017-11-09T13:33:41.452Z,29.80
2017-11-09T13:36:09.792Z,30.17
2017-11-09T13:38:38.143Z,26.73
2017-11-09T13:41:06.506Z,29.57
2017-11-09T13:43:34.891Z,28.07
2017-11-09T13:46:03.257Z,27.77
2017-11-09T13:48:31.599Z,29.53
2017-11-09T13:50:59.944Z,30.43
2017-11-09T13:53:28.295Z,25.70
2017-11-09T13:55:56.648Z,27.70
2017-11-09T13:58:25.016Z,28.60
2017-11-09T14:00:55.272Z,28.80
2017-11-09T14:03:23.618Z,25.67
2017-11-09T14:05:51.980Z,27.27
2017-11-09T14:08:20.349Z,27.90
2017-11-09T14:10:48.700Z,29.30
2017-11-09T14:13:17.049Z,29.80
2017-11-09T14:15:45.403Z,29.50
2017-11-09T14:18:13.792Z,29.23
2017-11-09T14:20:42.326Z,30.07
2017-11-09T14:23:10.993Z,29.90
2017-11-09T14:25:41.669Z,29.30
2017-11-09T14:28:10.996Z,28.80
2017-11-09T14:30:39.464Z,29.27
2017-11-09T14:33:10.923Z,28.53
2017-11-09T14:35:41.404Z,29.47
2017-11-09T14:38:09.846Z,30.67
2017-11-09T14:40:38.774Z,28.87
2017-11-09T14:43:08.170Z,29.50
2017-11-09T14:45:37.555Z,28.43
2017-11-09T14:48:06.966Z,29.00
2017-11-09T14:50:35.408Z,29.60
2017-11-09T14:53:05.642Z,29.33
2017-11-09T14:55:35.117Z,28.43
2017-11-09T14:58:05.792Z,26.30
2017-11-09T15:00:35.272Z,27.80
2017-11-09T15:03:03.707Z,25.53
2017-11-09T15:05:32.148Z,27.20
2017-11-09T15:08:00.574Z,26.63
2017-11-09T15:10:29.001Z,28.13
2017-11-09T15:12:57.360Z,24.67
2017-11-09T15:15:26.413Z,27.40
2017-11-09T15:17:54.886Z,27.13
2017-11-09T15:20:23.266Z,29.40
2017-11-09T15:22:51.680Z,27.90
2017-11-09T15:25:20.831Z,25.80
2017-11-09T15:27:49.584Z,25.80
2017-11-09T15:30:18.005Z,26.33
2017-11-09T15:32:46.449Z,26.10
2017-11-09T15:35:15.321Z,27.27
2017-11-09T15:37:43.692Z,23.50
2017-11-09T15:40:12.091Z,25.97
2017-11-09T15:42:40.501Z,25.20
2017-11-09T15:45:08.880Z,25.30
2017-11-09T15:47:37.252Z,26.40
2017-11-09T15:50:11.558Z,27.50
2017-11-09T15:52:40.777Z,24.97
2017-11-09T15:55:10.441Z,21.70
2017-11-09T15:57:38.885Z,24.73
2017-11-09T16:00:07.317Z,25.13
2017-11-09T16:02:35.794Z,25.13
2017-11-09T16:05:04.189Z,24.73
2017-11-09T16:07:39.238Z,25.47
2017-11-09T16:10:08.604Z,25.67
2017-11-09T16:12:36.994Z,24.20
2017-11-09T16:15:05.406Z,24.57
2017-11-09T16:17:36.304Z,28.60
2017-11-09T16:20:04.939Z,29.17
2017-11-09T16:22:33.638Z,31.50
2017-11-09T16:25:02.172Z,30.13
2017-11-09T16:27:31.413Z,27.37
2017-11-09T16:29:59.845Z,30.27
2017-11-09T16:32:28.270Z,31.67
2017-11-09T16:34:56.655Z,31.57
2017-11-09T16:37:25.032Z,29.57
2017-11-09T16:39:53.496Z,31.07
2017-11-09T16:42:21.857Z,29.93
2017-11-09T16:44:50.248Z,28.27
2017-11-09T16:47:18.612Z,28.40
2017-11-09T16:49:46.999Z,27.30
2017-11-09T16:52:15.364Z,26.87
2017-11-09T16:54:43.756Z,26.47
2017-11-09T16:57:12.147Z,27.73
2017-11-09T16:59:40.516Z,29.40
2017-11-09T17:02:08.920Z,30.03
2017-11-09T17:04:37.395Z,28.90
2017-11-09T17:07:05.779Z,30.20
2017-11-09T17:09:34.147Z,30.87
2017-11-09T17:12:02.499Z,28.17
2017-11-09T17:14:30.871Z,30.97
2017-11-09T17:16:59.285Z,29.63
2017-11-09T17:19:27.788Z,29.63
2017-11-09T17:21:56.244Z,28.70
2017-11-09T17:24:24.608Z,33.43
2017-11-09T17:26:52.996Z,33.83
2017-11-09T17:29:21.358Z,30.43
2017-11-09T17:31:49.747Z,29.43
2017-11-09T17:34:18.268Z,29.53
2017-11-09T17:36:46.639Z,28.63
2017-11-09T17:39:15.012Z,28.23
2017-11-09T17:41:43.384Z,28.13
2017-11-09T17:44:11.750Z,28.97
2017-11-09T17:46:40.100Z,28.70
2017-11-09T17:49:08.469Z,31.23
2017-11-09T17:51:38.606Z,30.37
2017-11-09T17:54:07.021Z,31.20
2017-11-09T17:56:36.305Z,32.63
2017-11-09T17:59:09.488Z,31.87
2017-11-09T18:01:37.857Z,26.83
2017-11-09T18:04:06.257Z,29.50
2017-11-09T18:06:34.612Z,29.97
2017-11-09T18:09:02.982Z,29.03
2017-11-09T18:11:31.339Z,28.80
2017-11-09T18:13:59.722Z,28.67
2017-11-09T18:16:28.108Z,28.60
2017-11-09T18:18:56.469Z,29.63
2017-11-09T18:21:24.832Z,28.80
2017-11-09T18:23:56.116Z,29.50
2017-11-09T18:26:24.484Z,31.27
2017-11-09T18:28:52.832Z,30.13
2017-11-09T18:31:21.236Z,30.33
2017-11-09T18:33:49.587Z,26.07
2017-11-09T18:36:18.170Z,26.30
2017-11-09T18:38:47.770Z,29.13
2017-11-09T18:41:16.599Z,28.50
2017-11-09T18:43:48.076Z,26.97
2017-11-09T18:46:18.139Z,26.33
2017-11-09T18:48:50.525Z,28.33
2017-11-09T18:51:19.445Z,26.87
2017-11-09T18:53:50.884Z,30.03
2017-11-09T18:56:22.875Z,28.20
2017-11-09T18:58:58.994Z,28.07
2017-11-09T19:01:31.734Z,32.30
2017-11-09T19:04:05.453Z,31.03
2017-11-09T19:06:36.711Z,36.17
2017-11-09T19:09:11.674Z,33.23
2017-11-09T19:11:44.636Z,31.00
2017-11-09T19:14:15.756Z,29.43
2017-11-09T19:16:56.873Z,30.83
2017-11-09T19:19:26.652Z,31.40
2017-11-09T19:22:00.735Z,29.23
2017-11-09T19:24:34.182Z,30.27
2017-11-09T19:27:09.871Z,29.37
2017-11-09T19:29:51.775Z,33.77
2017-11-09T19:32:27.454Z,32.40
2017-11-09T19:35:03.853Z,32.00
2017-11-09T19:37:37.241Z,29.73
2017-11-09T19:40:10.584Z,26.97
2017-11-09T19:42:44.410Z,30.30
2017-11-09T19:47:52.266Z,29.30
2017-11-09T19:50:24.767Z,28.70
2017-11-09T19:52:54.731Z,28.67
2017-11-09T19:55:33.696Z,30.40
2017-11-09T19:58:03.718Z,29.57
2017-11-09T20:00:37.837Z,30.30
2017-11-09T20:03:08.730Z,30.70
2017-11-09T20:05:46.172Z,30.00
2017-11-09T20:10:58.694Z,31.83
2017-11-09T20:13:32.732Z,29.77
2017-11-09T20:16:05.441Z,27.40
2017-11-09T20:18:41.583Z,31.20
2017-11-09T20:23:48.400Z,29.23
2017-11-09T20:26:24.427Z,29.13
2017-11-09T20:28:59.504Z,28.23
2017-11-09T20:31:30.154Z,28.17
2017-11-09T20:34:00.840Z,28.77
2017-11-09T20:36:29.197Z,27.50
2017-11-09T20:38:57.562Z,28.60
2017-11-09T20:41:25.916Z,26.47
2017-11-09T20:43:54.281Z,25.50
2017-11-09T20:46:22.641Z,25.83
2017-11-09T20:48:51.050Z,23.67
2017-11-09T20:51:19.464Z,25.37
2017-11-09T20:53:47.878Z,25.23
2017-11-09T20:56:16.307Z,26.70
2017-11-09T20:58:44.676Z,25.00
2017-11-09T21:01:13.049Z,23.10
2017-11-09T21:03:41.421Z,23.03
2017-11-09T21:06:09.777Z,21.83
2017-11-09T21:08:38.173Z,25.27
2017-11-09T21:11:06.581Z,24.80
2017-11-09T21:13:34.974Z,24.07
2017-11-09T21:16:03.359Z,23.13
2017-11-09T21:18:31.752Z,23.90
2017-11-09T21:21:00.118Z,24.50
2017-11-09T21:23:28.507Z,23.27
2017-11-09T21:25:57.786Z,25.53
2017-11-09T21:28:26.229Z,22.90
2017-11-09T21:30:54.607Z,21.27
2017-11-09T21:33:22.984Z,20.87
2017-11-09T21:35:51.344Z,22.27
2017-11-09T21:38:19.738Z,19.23
2017-11-09T21:40:48.096Z,22.20
2017-11-09T21:43:16.740Z,21.73
2017-11-09T21:45:45.544Z,20.90
2017-11-09T21:48:14.416Z,21.07
2017-11-09T21:50:43.797Z,19.60
2017-11-09T21:53:12.229Z,21.27
2017-11-09T21:55:40.872Z,20.50
2017-11-09T21:58:09.269Z,22.20
2017-11-09T22:00:37.667Z,20.00
2017-11-09T22:03:06.959Z,19.70
2017-11-09T22:05:35.316Z,18.87
2017-11-09T22:08:03.669Z,18.30
2017-11-09T22:10:32.052Z,16.80
2017-11-09T22:13:00.405Z,18.13
2017-11-09T22:15:28.772Z,18.97
2017-11-09T22:17:57.163Z,17.47
2017-11-09T22:20:25.525Z,17.50
2017-11-09T22:22:53.931Z,17.13
2017-11-09T22:25:22.283Z,16.27
2017-11-09T22:27:50.693Z,17.80
2017-11-09T22:30:19.048Z,17.40
2017-11-09T22:32:47.396Z,18.07
2017-11-09T22:35:15.788Z,19.20
2017-11-09T22:37:44.149Z,20.33
2017-11-09T22:40:12.537Z,19.60
2017-11-09T22:42:40.912Z,17.97
2017-11-09T22:45:09.265Z,20.47
2017-11-09T22:47:37.690Z,20.00
2017-11-09T22:50:06.094Z,19.80
2017-11-09T22:52:35.169Z,19.80
2017-11-09T22:55:03.544Z,19.03
2017-11-09T22:57:31.910Z,20.00
2017-11-09T23:00:00.259Z,21.10
2017-11-09T23:02:28.634Z,22.60
2017-11-09T23:04:56.981Z,22.07
2017-11-09T23:07:25.339Z,23.23
2017-11-09T23:09:53.687Z,21.80
2017-11-09T23:12:22.177Z,21.83
2017-11-09T23:14:50.538Z,19.93
2017-11-09T23:17:18.899Z,20.33
2017-11-09T23:19:47.253Z,19.27
2017-11-09T23:22:15.631Z,19.57
2017-11-09T23:24:44.008Z,18.50
2017-11-09T23:27:12.389Z,20.67
2017-11-09T23:29:40.774Z,20.20
2017-11-09T23:32:09.142Z,19.93
2017-11-09T23:34:37.519Z,19.13
2017-11-09T23:37:05.870Z,17.60
2017-11-09T23:39:34.255Z,18.70
2017-11-09T23:42:06.551Z,17.83
2017-11-09T23:44:34.916Z,18.90
2017-11-09T23:47:03.285Z,20.87
2017-11-09T23:49:31.641Z,19.00
2017-11-09T23:52:00.140Z,17.40
2017-11-09T23:54:28.511Z,18.47
2017-11-09T23:56:56.891Z,18.40
2017-11-09T23:59:25.243Z,18.67
